Latest Weather Observations for Mallacoota

IDV60801

Issued at 9:31 pm EST Saturday 18 April 2015 (issued every 30 minutes, with the page automatically refreshed every 10 minutes)

About weather observations | Map of weather stations | Latest weather observations for VIC | Other Formats
Station Details ID: 084084 Name: MALLACOOTA Lat: -37.60 Lon: 149.73 Height: 22.0 m
Data from the previous 72 hours. | See also: Recent months at Mallacoota
Date/Time
EST
Temp
°C
App
Temp
°C
Dew
Point
Rel
Hum
%
Delta-T
°C
Wind Press
QNH
hPa
Press
MSL
hPa
Rain
since 9 am
mm
Dir
 
Spd
km/h
Gust
km/h
Spd
kts
Gust
kts
18/09:30pm 16.0 15.2 15.0 94 0.6 SSW 13 20 7 11 1012.5 - 7.4
18/09:00pm 16.4 14.9 15.4 94 0.6 SW 17 26 9 14 1012.5 1012.4 7.4
18/08:30pm 16.8 15.5 15.8 94 0.6 SSW 17 22 9 12 1012.4 - 7.2
18/08:00pm 17.1 18.0 16.0 93 0.6 WSW 6 9 3 5 1012.0 - 6.6
18/07:30pm 17.0 17.8 15.9 93 0.6 W 6 7 3 4 1011.5 - 6.4
18/07:00pm 17.2 17.5 15.9 92 0.8 ESE 9 13 5 7 1011.2 - 5.8
18/06:30pm 17.3 18.2 16.0 92 0.8 SW 6 9 3 5 1011.1 - 0.6
18/06:00pm 17.3 17.5 15.8 91 0.9 SW 9 13 5 7 1010.8 1010.7 0.2
18/05:30pm 17.6 18.2 15.9 90 1.0 WSW 7 11 4 6 1010.7 - 0.0
18/05:00pm 17.8 17.3 15.8 88 1.2 SSW 13 19 7 10 1010.3 - 0.0
18/04:30pm 18.2 17.7 16.0 87 1.3 SSW 13 19 7 10 1010.4 - 0.0
18/04:00pm 18.5 18.1 16.3 87 1.3 SSW 13 20 7 11 1010.2 - 0.0
18/03:30pm 18.6 18.3 16.4 87 1.3 S 13 20 7 11 1009.8 - 0.0
18/03:00pm 18.7 18.5 16.7 88 1.2 SSW 13 20 7 11 1009.9 1009.8 0.0
18/02:30pm 18.9 18.4 16.9 88 1.2 S 15 24 8 13 1009.8 - 0.0
18/02:00pm 18.9 19.2 16.9 88 1.2 S 11 15 6 8 1010.0 - 0.0
18/01:30pm 18.9 18.8 17.0 89 1.1 S 13 22 7 12 1010.3 - 0.0
18/01:00pm 18.7 18.9 16.8 89 1.1 S 11 19 6 10 1010.8 - 0.0
18/12:30pm 18.7 18.9 16.7 88 1.2 S 11 13 6 7 1011.2 - 0.0
18/12:00pm 18.6 19.4 16.4 87 1.3 SSE 7 15 4 8 1011.8 1011.7 0.0
18/11:30am 19.9 20.5 16.7 82 1.9 WSW 9 13 5 7 1012.0 - 0.0
18/11:00am 19.7 19.7 16.3 81 2.0 NNW 11 15 6 8 1012.0 - 0.0
18/10:30am 19.5 19.8 16.0 80 2.1 NW 9 13 5 7 1012.3 - 0.0
18/10:00am 19.3 18.8 16.0 81 2.0 NNW 13 17 7 9 1012.2 - 0.0
18/09:30am 19.0 18.8 15.7 81 2.0 NNW 11 17 6 9 1012.1 - 0.0
18/09:00am 18.9 18.0 15.9 83 1.8 NNW 15 22 8 12 1012.2 1012.1 2.6
18/08:30am 18.5 18.0 15.9 85 1.5 NNW 13 20 7 11 1012.3 - 2.6
18/08:00am 17.8 17.6 15.8 88 1.2 NNW 11 20 6 11 1012.2 - 2.6
18/07:30am 17.3 17.7 15.3 88 1.2 NW 7 9 4 5 1012.2 - 2.6
18/07:00am 17.4 17.4 15.2 87 1.3 N 9 11 5 6 1012.2 - 2.6
18/06:30am 17.8 17.5 15.4 86 1.4 N 11 15 6 8 1011.9 - 2.6
18/06:00am 17.8 17.3 15.8 88 1.2 NNW 13 20 7 11 1012.1 1012.0 2.6
18/05:30am 17.6 17.1 15.8 89 1.1 NW 13 19 7 10 1012.3 - 2.6
18/05:00am 17.4 17.2 15.7 90 1.0 N 11 17 6 9 1011.8 - 2.6
18/04:30am 17.4 17.3 15.9 91 0.9 NNW 11 17 6 9 1012.1 - 2.6
18/04:00am 17.3 16.8 15.8 91 0.9 N 13 22 7 12 1012.3 - 2.6
18/03:30am 17.1 16.9 15.8 92 0.8 N 11 17 6 9 1012.3 - 2.6
18/03:00am 17.2 16.7 15.9 92 0.8 NNW 13 17 7 9 1012.8 1012.7 2.6
18/02:30am 17.2 17.5 15.9 92 0.8 N 9 13 5 7 1013.3 - 2.6
18/02:00am 17.1 17.6 15.6 91 0.9 NW 7 9 4 5 1014.0 - 2.2
18/01:30am 17.3 17.5 15.8 91 0.9 NNW 9 17 5 9 1014.2 - 2.0
18/01:00am 17.5 16.6 15.8 90 1.0 NNW 15 22 8 12 1014.5 - 1.4
18/12:30am 17.5 16.5 15.7 89 1.1 N 15 20 8 11 1014.5 - 1.0
18/12:00am 17.8 16.1 15.8 88 1.2 N 19 28 10 15 1014.3 1014.2 0.8
 
Date/Time
EST
Temp
°C
App
Temp
°C
Dew
Point
Rel
Hum
%
Delta-T
°C
Wind Press
QNH
hPa
Press
MSL
hPa
Rain
since 9 am
mm
Dir
 
Spd
km/h
Gust
km/h
Spd
kts
Gust
kts
17/11:30pm 17.7 16.8 15.9 89 1.1 N 15 22 8 12 1014.6 - 0.8
17/11:00pm 17.8 17.0 16.0 89 1.1 NNW 15 24 8 13 1015.1 - 0.8
17/10:30pm 17.7 16.9 16.0 90 1.0 N 15 24 8 13 1015.4 - 0.8
17/10:00pm 17.8 17.1 16.3 91 0.9 N 15 26 8 14 1015.7 - 0.8
17/09:30pm 17.7 17.0 16.4 92 0.8 N 15 24 8 13 1015.8 - 0.8
17/09:00pm 17.4 16.2 16.1 92 0.8 N 17 28 9 15 1016.3 1016.2 0.8
17/08:30pm 17.2 16.3 15.9 92 0.8 N 15 28 8 15 1016.9 - 0.6
17/08:00pm 17.1 16.5 15.6 91 0.9 N 13 22 7 12 1017.2 - 0.6
17/07:30pm 17.0 17.0 15.3 90 1.0 N 9 15 5 8 1017.6 - 0.0
17/07:00pm 16.8 16.0 15.0 89 1.0 N 13 20 7 11 1017.7 - 0.0
17/06:30pm 16.8 15.8 14.6 87 1.3 N 13 22 7 12 1018.1 - 0.0
17/06:00pm 16.8 16.5 14.3 85 1.4 N 9 15 5 8 1018.4 1018.3 0.0
17/05:30pm 16.8 16.4 14.1 84 1.5 N 9 13 5 7 1018.7 - 0.0
17/05:00pm 16.8 16.7 13.9 83 1.6 N 7 9 4 5 1018.7 - 0.0
17/04:30pm 17.0 16.1 13.7 81 1.9 N 11 17 6 9 1018.9 - 0.0
17/04:00pm 16.9 16.3 13.6 81 1.9 NNE 9 15 5 8 1019.1 - 0.0
17/03:30pm 17.0 15.6 13.5 80 2.0 NNE 13 20 7 11 1019.9 - 0.0
17/03:00pm 17.0 15.2 13.3 79 2.1 NNE 15 19 8 10 1019.9 1019.8 0.0
17/02:30pm 17.4 15.2 13.3 77 2.3 NNE 17 24 9 13 1020.2 - 0.0
17/02:00pm 17.4 15.9 13.1 76 2.4 NNE 13 22 7 12 1020.6 - 0.0
17/01:30pm 17.4 16.7 13.1 76 2.4 NE 9 13 5 7 1021.0 - 0.0
17/01:00pm 16.9 15.6 12.4 75 2.5 ENE 11 17 6 9 1021.8 - 0.0
17/12:30pm 17.0 16.4 12.3 74 2.6 N 7 11 4 6 1022.5 - 0.0
17/12:00pm 17.1 16.5 12.2 73 2.7 ENE 7 11 4 6 1023.0 1023.0 0.0
17/11:30am 17.3 16.3 12.2 72 2.8 ENE 9 13 5 7 1023.5 - 0.0
17/11:00am 17.1 16.3 11.8 71 2.9 E 7 9 4 5 1024.1 - 0.0
17/10:30am 17.1 16.5 11.8 71 2.9 ENE 6 9 3 5 1024.4 - 0.0
17/10:00am 16.8 16.3 12.1 74 2.6 NNW 6 7 3 4 1024.7 - 0.0
17/09:30am 15.7 15.2 11.9 78 2.1 WNW 6 7 3 4 1024.9 - 0.0
17/09:00am 15.8 15.2 11.8 77 2.2 W 6 7 3 4 1025.2 1025.2 0.0
17/08:30am 15.7 14.9 11.7 77 2.2 WNW 7 9 4 5 1025.1 - 0.0
17/08:00am 15.0 14.3 12.0 82 1.6 WNW 7 11 4 6 1024.9 - 0.0
17/07:30am 13.6 12.6 11.1 85 1.3 WNW 7 9 4 5 1024.9 - 0.0
17/07:00am 13.7 12.7 11.0 84 1.4 W 7 9 4 5 1024.6 - 0.0
17/06:30am 13.8 12.8 11.0 83 1.5 WNW 7 11 4 6 1024.6 - 0.0
17/06:00am 13.7 12.3 10.9 83 1.5 NW 9 11 5 6 1024.4 1024.4 0.0
17/05:30am 13.8 12.4 11.0 83 1.5 NW 9 13 5 7 1023.8 - 0.0
17/05:00am 13.8 12.5 11.1 84 1.4 NW 9 13 5 7 1023.5 - 0.0
17/04:30am 13.9 12.9 11.1 83 1.5 WNW 7 11 4 6 1023.4 - 0.0
17/04:00am 14.0 13.2 11.0 82 1.6 W 6 7 3 4 1023.4 - 0.0
17/03:30am 14.2 13.4 11.0 81 1.7 WNW 6 7 3 4 1023.6 - 0.0
17/03:00am 14.4 13.4 11.0 80 1.8 WNW 7 9 4 5 1024.0 1024.0 0.0
17/02:30am 14.6 13.5 10.8 78 2.0 WSW 7 11 4 6 1024.1 - 0.0
17/02:00am 14.8 13.9 10.8 77 2.1 WSW 6 11 3 6 1024.3 - 0.0
17/01:30am 15.0 14.0 11.0 77 2.1 W 7 9 4 5 1024.8 - 0.0
17/01:00am 15.0 14.1 11.2 78 2.0 W 7 11 4 6 1024.9 - 0.0
17/12:30am 15.0 13.7 11.4 79 1.9 W 9 13 5 7 1025.2 - 0.0
17/12:00am 14.8 13.9 11.4 80 1.8 WNW 7 13 4 7 1025.2 1025.2 0.0
 
Date/Time
EST
Temp
°C
App
Temp
°C
Dew
Point
Rel
Hum
%
Delta-T
°C
Wind Press
QNH
hPa
Press
MSL
hPa
Rain
since 9 am
mm
Dir
 
Spd
km/h
Gust
km/h
Spd
kts
Gust
kts
16/11:30pm 14.7 13.4 11.3 80 1.8 WNW 9 13 5 7 1025.3 - 0.0
16/11:00pm 14.6 13.7 11.2 80 1.8 WNW 7 9 4 5 1025.3 - 0.0
16/10:30pm 14.8 13.9 11.2 79 1.9 NW 7 9 4 5 1025.3 - 0.0
16/10:00pm 15.3 14.6 11.3 77 2.1 W 6 9 3 5 1025.3 - 0.0
16/09:30pm 15.6 13.9 11.2 75 2.4 WSW 11 20 6 11 1025.1 - 0.0
16/09:00pm 15.8 14.9 11.4 75 2.4 SW 7 11 4 6 1024.8 1024.8 0.0
16/08:30pm 16.0 14.4 11.6 75 2.4 WSW 11 19 6 10 1024.7 - 0.0
16/08:00pm 16.0 15.2 11.8 76 2.3 WSW 7 13 4 7 1024.6 - 0.0
16/07:30pm 15.9 14.8 11.9 77 2.2 WSW 9 17 5 9 1024.0 - 0.0
16/07:00pm 15.5 14.8 11.9 79 2.0 SW 7 13 4 7 1023.8 - 0.0
16/06:30pm 15.7 13.8 11.7 77 2.2 SW 13 22 7 12 1023.7 - 0.0
16/06:00pm 16.1 14.2 11.7 75 2.4 SW 13 20 7 11 1023.2 1023.2 0.0
16/05:30pm 16.5 15.0 11.9 74 2.5 SW 11 20 6 11 1023.0 - 0.0
16/05:00pm 16.9 16.4 12.6 76 2.4 SW 7 13 4 7 1022.8 - 0.0
16/04:30pm 17.2 16.0 12.7 75 2.5 SW 11 20 6 11 1022.4 - 0.0
16/04:00pm 17.4 14.7 12.9 75 2.5 SW 19 30 10 16 1022.2 - 0.0
16/03:30pm 17.7 15.3 13.8 78 2.2 SW 19 28 10 15 1022.2 - 0.0
16/03:00pm 17.6 15.9 13.7 78 2.2 SW 15 22 8 12 1022.2 1022.2 0.0
16/02:30pm 19.8 18.2 14.0 69 3.3 SW 15 24 8 13 1021.9 - 0.0
16/02:00pm 18.7 17.1 12.9 69 3.3 WSW 13 22 7 12 1022.0 - 0.0
16/01:30pm 18.5 16.9 12.7 69 3.2 WSW 13 22 7 12 1022.2 - 0.0
16/01:00pm 18.2 15.8 12.6 70 3.1 SW 17 28 9 15 1022.4 - 0.0
16/12:30pm 19.3 17.6 13.5 69 3.3 SW 15 24 8 13 1022.2 - 0.0
16/12:00pm 20.8 18.4 13.7 64 4.1 SW 19 28 10 15 1022.4 1022.4 0.0
16/11:30am 20.5 18.1 13.9 66 3.8 WSW 19 30 10 16 1022.4 - 0.0
16/11:00am 19.9 18.2 13.6 67 3.6 SW 15 26 8 14 1022.4 - 0.0
16/10:30am 20.5 19.0 14.2 67 3.7 WSW 15 24 8 13 1022.0 - 0.0
16/10:00am 20.3 18.2 14.7 70 3.3 WSW 19 30 10 16 1022.2 - 0.0
16/09:30am 19.1 17.7 14.4 74 2.7 WSW 15 22 8 12 1022.3 - 0.0
16/09:00am 19.3 18.0 14.8 75 2.6 WSW 15 30 8 16 1022.1 1022.1 0.0
16/08:30am 18.5 17.4 14.2 76 2.5 WSW 13 22 7 12 1022.0 - 0.0
16/08:00am 17.8 17.4 14.1 79 2.1 WNW 9 17 5 9 1021.7 - 0.0
16/07:30am 17.0 16.5 13.7 81 1.9 WSW 9 17 5 9 1021.6 - 0.0
16/07:00am 16.7 16.1 13.4 81 1.9 WSW 9 13 5 7 1021.3 - 0.0
16/06:30am 16.5 15.8 13.2 81 1.8 SW 9 13 5 7 1021.0 - 0.0
16/06:00am 16.7 16.1 13.4 81 1.8 WSW 9 19 5 10 1020.6 1020.5 0.0
16/05:30am 16.6 16.4 13.5 82 1.7 W 7 19 4 10 1020.0 - 0.0
16/05:00am 16.5 16.2 13.2 81 1.8 W 7 11 4 6 1019.7 - 0.0
16/04:30am 17.0 16.1 13.7 81 1.9 W 11 20 6 11 1019.1 - 0.0
16/04:00am 17.3 16.0 13.8 80 2.0 W 13 26 7 14 1018.6 - 0.0
16/03:30am 16.7 16.4 12.8 78 2.2 NNW 6 9 3 5 1018.4 - 0.0
16/03:00am 16.8 16.4 12.3 75 2.5 W 6 11 3 6 1018.4 1018.3 0.0
16/02:30am 17.5 16.5 12.4 72 2.8 WNW 9 13 5 7 1018.2 - 0.0
16/02:00am 17.9 16.7 12.8 72 2.9 NW 11 17 6 9 1018.1 - 0.0
16/01:30am 17.8 16.6 12.7 72 2.8 NW 11 15 6 8 1018.1 - 0.0
16/01:00am 17.8 16.2 12.7 72 2.8 NNW 13 17 7 9 1018.0 - 0.0
16/12:30am 18.3 16.8 13.0 71 3.0 NNW 13 19 7 10 1018.2 - 0.0
16/12:00am 18.4 16.9 13.0 71 3.0 NNW 13 17 7 9 1018.2 1018.1 0.0
 
Date/Time
EST
Temp
°C
App
Temp
°C
Dew
Point
Rel
Hum
%
Delta-T
°C
Wind Press
QNH
hPa
Press
MSL
hPa
Rain
since 9 am
mm
Dir
 
Spd
km/h
Gust
km/h
Spd
kts
Gust
kts
15/11:30pm 18.6 17.1 13.2 71 3.1 NNW 13 17 7 9 1018.3 - 0.0
15/11:00pm 18.4 17.0 13.5 73 2.8 NNW 13 19 7 10 1018.4 - 0.0
15/10:30pm 18.3 17.4 13.6 74 2.7 NW 11 17 6 9 1018.6 - 0.0
15/10:00pm 18.3 17.4 13.8 75 2.6 NW 11 15 6 8 1018.7 - 0.0

Other Formats:

Comma delimited format used in spreadsheet applications
http://www.bom.gov.au/fwo/IDV60801/IDV60801.94935.axf

JavaScript Object Notation format (JSON) in row-major order
http://www.bom.gov.au/fwo/IDV60801/IDV60801.94935.json